Time;durP1;ratioP1;P1;durP2;ratioP2;P2;SDS_P1;SDS_P2;PMS_P1;PMS_P2;Temp;Humidity;BMP_temperature;BMP_pressure;BME280_temperature;BME280_humidity;BME280_pressure;Samples;Min_cycle;Max_cycle;Signal;HPM_P1;HPM_P2
2023/08/05 00:01:21;;;;;;;6.50;5.50;;;13.50;99.90;;;;;;4958869;28;20441;-62
2023/08/05 00:03:49;;;;;;;6.03;5.30;;;13.40;99.90;;;;;;4958659;29;20561;-62
2023/08/05 00:06:18;;;;;;;9.20;5.83;;;13.20;99.90;;;;;;4958588;29;20504;-62
2023/08/05 00:08:46;;;;;;;6.40;5.80;;;13.20;99.90;;;;;;4959137;29;20561;-62
2023/08/05 00:11:13;;;;;;;7.17;4.90;;;13.20;99.90;;;;;;4958860;29;20446;-62
2023/08/05 00:13:40;;;;;;;6.37;5.33;;;13.10;99.90;;;;;;4958566;29;20437;-62
2023/08/05 00:16:07;;;;;;;6.43;5.17;;;13.20;99.90;;;;;;4958588;29;20916;-62
2023/08/05 00:18:34;;;;;;;5.97;5.30;;;13.20;99.90;;;;;;4958749;29;20526;-62
2023/08/05 00:21:03;;;;;;;7.97;5.23;;;13.20;99.90;;;;;;4958154;29;20463;-62
2023/08/05 00:23:30;;;;;;;5.17;4.77;;;13.20;99.90;;;;;;4958664;29;20441;-62
2023/08/05 00:25:57;;;;;;;5.30;4.80;;;13.20;99.90;;;;;;4958319;29;20597;-62
2023/08/05 00:28:24;;;;;;;6.63;5.20;;;13.20;99.90;;;;;;4957859;29;20466;-59
2023/08/05 00:30:51;;;;;;;5.20;4.70;;;13.20;99.90;;;;;;4958549;29;20767;-62
2023/08/05 00:33:19;;;;;;;5.40;4.63;;;13.30;99.90;;;;;;4958495;29;20462;-62
2023/08/05 00:35:46;;;;;;;5.47;4.97;;;13.30;99.90;;;;;;4958526;29;20437;-62
2023/08/05 00:38:15;;;;;;;5.47;4.97;;;13.40;99.90;;;;;;4958334;29;20721;-62
2023/08/05 00:40:43;;;;;;;5.27;4.63;;;13.30;99.90;;;;;;4959470;28;20467;-62
2023/08/05 00:43:10;;;;;;;5.80;5.20;;;13.30;99.90;;;;;;4962242;28;20466;-62
2023/08/05 00:45:37;;;;;;;6.77;5.23;;;13.30;99.90;;;;;;4961219;29;20495;-62
2023/08/05 00:48:05;;;;;;;6.87;5.43;;;13.30;99.90;;;;;;4961571;29;20790;-62
2023/08/05 00:50:33;;;;;;;8.43;5.67;;;13.30;99.90;;;;;;4966818;28;20516;-62
2023/08/05 00:53:01;;;;;;;5.97;5.47;;;13.30;99.90;;;;;;4980937;28;20797;-62
2023/08/05 00:55:30;;;;;;;5.77;4.73;;;13.20;99.90;;;;;;4981305;28;20454;-62
2023/08/05 00:57:58;;;;;;;6.10;4.90;;;13.20;99.90;;;;;;4981240;28;20440;-62
2023/08/05 01:00:25;;;;;;;6.00;5.23;;;13.20;99.90;;;;;;4980935;28;20481;-62
2023/08/05 01:02:52;;;;;;;4.70;3.93;;;13.20;99.90;;;;;;4979481;28;20514;-62
2023/08/05 01:05:21;;;;;;;5.60;4.93;;;13.20;99.90;;;;;;4978980;28;20943;-62
2023/08/05 01:07:48;;;;;;;6.20;4.60;;;13.20;99.90;;;;;;4980286;28;20465;-62
2023/08/05 01:10:16;;;;;;;5.83;4.67;;;13.20;99.90;;;;;;4980666;28;20523;-62
2023/08/05 01:12:44;;;;;;;6.97;4.70;;;13.10;99.90;;;;;;4980806;28;20548;-62
2023/08/05 01:15:12;;;;;;;6.90;4.80;;;13.00;99.90;;;;;;4980642;28;20489;-62
2023/08/05 01:17:39;;;;;;;4.33;3.93;;;12.90;99.90;;;;;;4980083;28;20533;-61
2023/08/05 01:20:09;;;;;;;7.10;4.57;;;13.00;99.90;;;;;;4979910;28;20488;-62
2023/08/05 01:22:41;;;;;;;6.23;4.90;;;13.00;99.90;;;;;;4980664;28;20493;-62
2023/08/05 01:25:20;;;;;;;6.10;5.07;;;13.10;99.90;;;;;;4980598;28;20493;-62
2023/08/05 01:27:47;;;;;;;7.23;5.60;;;13.10;99.90;;;;;;4980376;28;20468;-62
2023/08/05 01:30:14;;;;;;;5.80;5.20;;;13.10;99.90;;;;;;4980252;28;20436;-62
2023/08/05 01:32:42;;;;;;;9.63;6.67;;;13.20;99.90;;;;;;4980146;28;20462;-62
2023/08/05 01:35:11;;;;;;;6.87;5.50;;;13.20;99.90;;;;;;4980196;28;20457;-62
2023/08/05 01:37:38;;;;;;;7.90;5.43;;;13.20;99.90;;;;;;4979668;28;20443;-62
2023/08/05 01:40:06;;;;;;;5.50;4.90;;;13.30;99.90;;;;;;4979884;28;20461;-62
2023/08/05 01:42:35;;;;;;;7.10;5.10;;;13.30;99.90;;;;;;4979896;28;20539;-62
2023/08/05 01:45:02;;;;;;;7.17;5.80;;;13.30;99.90;;;;;;4980078;28;20900;-62
2023/08/05 01:47:29;;;;;;;6.37;5.00;;;13.30;99.90;;;;;;4980131;28;20457;-62
2023/08/05 01:49:56;;;;;;;12.73;6.60;;;13.20;99.90;;;;;;4978485;28;20462;-62
2023/08/05 01:52:24;;;;;;;12.47;5.60;;;13.20;99.90;;;;;;4959810;28;20472;-62
2023/08/05 01:54:51;;;;;;;9.13;6.80;;;13.10;99.90;;;;;;4960648;29;20467;-61
2023/08/05 01:57:18;;;;;;;9.90;6.17;;;13.10;99.90;;;;;;4959901;28;20908;-61
2023/08/05 01:59:47;;;;;;;9.90;5.23;;;13.20;99.90;;;;;;4960245;29;20906;-62
2023/08/05 02:02:14;;;;;;;9.47;5.70;;;13.10;99.90;;;;;;4960234;29;20437;-62
2023/08/05 02:04:41;;;;;;;7.00;5.90;;;13.10;99.90;;;;;;4960395;29;20935;-62
2023/08/05 02:07:08;;;;;;;6.70;5.67;;;13.10;99.90;;;;;;4960296;29;20531;-61
2023/08/05 02:09:36;;;;;;;6.20;5.33;;;13.10;99.90;;;;;;4960002;28;20831;-62
2023/08/05 02:12:03;;;;;;;5.60;4.63;;;13.10;99.90;;;;;;4959557;29;20562;-61
2023/08/05 02:14:30;;;;;;;6.90;4.70;;;13.10;99.90;;;;;;4960116;29;20955;-61
2023/08/05 02:16:59;;;;;;;17.20;5.30;;;13.10;99.90;;;;;;4960131;29;20558;-62
2023/08/05 02:19:26;;;;;;;5.23;4.50;;;13.10;99.90;;;;;;4959807;28;20463;-61
2023/08/05 02:21:53;;;;;;;10.47;4.83;;;13.00;99.90;;;;;;4959708;28;20467;-62
2023/08/05 02:24:20;;;;;;;9.40;5.50;;;13.00;99.90;;;;;;4959697;29;20448;-61
2023/08/05 02:26:47;;;;;;;5.50;4.77;;;12.90;99.90;;;;;;4959958;29;20771;-61
2023/08/05 02:29:14;;;;;;;30.67;6.30;;;12.80;99.90;;;;;;4959882;29;20547;-62
2023/08/05 02:31:41;;;;;;;9.43;5.20;;;12.90;99.90;;;;;;4959430;29;20565;-61
2023/08/05 02:34:10;;;;;;;6.50;5.13;;;12.90;99.90;;;;;;4959925;29;20444;-61
2023/08/05 02:36:37;;;;;;;7.30;5.20;;;12.90;99.90;;;;;;4960010;29;20469;-61
2023/08/05 02:39:04;;;;;;;10.40;4.80;;;13.00;99.90;;;;;;4959776;29;20469;-61
2023/08/05 02:41:32;;;;;;;5.23;4.73;;;12.90;99.90;;;;;;4959813;29;20919;-61
2023/08/05 02:43:59;;;;;;;6.73;5.33;;;13.00;99.90;;;;;;4959573;29;20557;-61
2023/08/05 02:46:26;;;;;;;7.97;5.00;;;13.00;99.90;;;;;;4959462;29;20514;-61
2023/08/05 02:48:53;;;;;;;16.07;4.70;;;13.00;99.90;;;;;;4959140;29;20462;-61
2023/08/05 02:51:21;;;;;;;10.50;4.87;;;12.90;99.90;;;;;;4971573;28;20460;-61
2023/08/05 02:53:49;;;;;;;9.90;5.03;;;12.90;99.90;;;;;;4978733;28;20464;-61
2023/08/05 02:56:16;;;;;;;11.70;5.77;;;12.80;99.90;;;;;;4978794;28;20564;-61
2023/08/05 02:58:43;;;;;;;10.10;5.10;;;12.80;99.90;;;;;;4978271;28;20440;-61
2023/08/05 03:01:11;;;;;;;11.83;4.93;;;12.80;99.90;;;;;;4978995;28;20557;-61
2023/08/05 03:03:38;;;;;;;15.30;5.63;;;12.80;99.90;;;;;;4977631;28;20465;-61
2023/08/05 03:06:06;;;;;;;13.57;4.70;;;12.70;99.90;;;;;;4978502;28;20498;-61
2023/08/05 03:08:34;;;;;;;4.60;4.17;;;12.70;99.90;;;;;;4979027;28;20846;-61
2023/08/05 03:11:02;;;;;;;7.13;3.87;;;12.70;99.90;;;;;;4978777;28;20471;-61
2023/08/05 03:13:29;;;;;;;6.57;4.50;;;12.70;99.90;;;;;;4978879;28;20568;-61
2023/08/05 03:15:57;;;;;;;5.67;4.50;;;12.70;99.90;;;;;;4978011;28;20556;-61
2023/08/05 03:18:24;;;;;;;5.77;5.00;;;12.70;99.90;;;;;;4978977;28;20484;-61
2023/08/05 03:20:51;;;;;;;6.00;4.30;;;12.60;99.90;;;;;;4978772;28;20484;-61
2023/08/05 03:23:18;;;;;;;5.00;3.80;;;12.60;99.90;;;;;;4978629;28;20462;-61
2023/08/05 03:25:47;;;;;;;11.73;4.20;;;12.50;99.90;;;;;;4978974;28;20498;-61
2023/08/05 03:28:14;;;;;;;5.07;4.43;;;12.50;99.90;;;;;;4978285;28;20556;-61
2023/08/05 03:30:41;;;;;;;7.40;5.10;;;12.60;99.90;;;;;;4978811;28;20565;-61
2023/08/05 03:33:09;;;;;;;6.20;5.00;;;12.60;99.90;;;;;;4978781;28;20484;-61
2023/08/05 03:35:36;;;;;;;20.73;5.80;;;12.50;99.90;;;;;;4978154;28;20883;-61
2023/08/05 03:38:03;;;;;;;8.80;5.40;;;12.50;99.90;;;;;;4978219;28;20466;-61
2023/08/05 03:40:31;;;;;;;13.87;5.50;;;12.50;99.90;;;;;;4978842;28;20465;-61
2023/08/05 03:42:59;;;;;;;10.63;5.13;;;12.50;99.90;;;;;;4978395;28;20462;-61
2023/08/05 03:45:26;;;;;;;6.57;5.57;;;12.40;99.90;;;;;;4977988;28;20751;-61
2023/08/05 03:47:54;;;;;;;6.83;5.00;;;12.40;99.90;;;;;;4977917;28;20468;-61
2023/08/05 03:50:21;;;;;;;5.80;5.20;;;12.40;99.90;;;;;;4973506;28;20546;-61
2023/08/05 03:52:49;;;;;;;6.50;5.80;;;12.40;99.90;;;;;;4958725;28;20919;-61
2023/08/05 03:55:16;;;;;;;7.80;5.60;;;12.30;99.90;;;;;;4958914;28;20530;-61
2023/08/05 03:57:44;;;;;;;6.17;5.37;;;12.40;99.90;;;;;;4958489;28;20562;-61
2023/08/05 04:00:12;;;;;;;6.27;5.67;;;12.30;99.90;;;;;;4958700;28;20550;-61
2023/08/05 04:02:40;;;;;;;6.47;5.83;;;12.30;99.90;;;;;;4958811;28;20887;-61
2023/08/05 04:05:08;;;;;;;7.70;5.20;;;12.30;99.90;;;;;;4958800;28;20506;-60
2023/08/05 04:07:35;;;;;;;10.77;4.70;;;12.30;99.90;;;;;;4958435;28;20505;-60
2023/08/05 04:10:05;;;;;;;6.27;5.00;;;12.20;99.90;;;;;;4959060;28;20895;-60
2023/08/05 04:12:35;;;;;;;7.10;5.00;;;12.20;99.90;;;;;;4958886;28;20569;-60
2023/08/05 04:15:03;;;;;;;5.83;4.77;;;12.20;99.90;;;;;;4960536;28;20474;-60
2023/08/05 04:17:32;;;;;;;6.00;5.40;;;12.20;99.90;;;;;;4962939;28;20469;-60
2023/08/05 04:20:00;;;;;;;11.10;5.17;;;12.20;99.90;;;;;;4962830;28;20437;-60
2023/08/05 04:22:27;;;;;;;14.00;5.40;;;12.00;99.90;;;;;;4962597;28;20442;-59
2023/08/05 04:24:54;;;;;;;18.47;5.47;;;12.00;99.90;;;;;;4962483;28;20462;-60
2023/08/05 04:27:22;;;;;;;20.93;6.03;;;12.00;99.90;;;;;;4962721;28;20577;-60
2023/08/05 04:29:50;;;;;;;21.17;5.10;;;12.00;99.90;;;;;;4962560;28;20462;-60
2023/08/05 04:32:17;;;;;;;15.47;5.80;;;12.00;99.90;;;;;;4962495;28;20827;-60
2023/08/05 04:34:46;;;;;;;27.50;6.53;;;12.10;99.90;;;;;;4962563;28;20481;-60
2023/08/05 04:37:16;;;;;;;5.50;5.00;;;12.00;99.90;;;;;;4974890;28;20762;-60
2023/08/05 04:39:43;;;;;;;5.50;4.90;;;12.00;99.90;;;;;;4981622;28;20837;-60
2023/08/05 04:42:10;;;;;;;6.97;6.27;;;12.00;99.90;;;;;;4981991;28;20461;-60
2023/08/05 04:44:40;;;;;;;8.50;6.33;;;12.10;99.90;;;;;;4981341;28;20471;-60
2023/08/05 04:47:07;;;;;;;7.50;6.63;;;12.20;99.90;;;;;;4981622;28;20500;-60
2023/08/05 04:49:34;;;;;;;6.90;6.20;;;12.20;99.90;;;;;;4981215;28;20448;-60
2023/08/05 04:52:06;;;;;;;7.30;5.97;;;12.20;99.90;;;;;;4981016;28;20587;-60
2023/08/05 04:54:37;;;;;;;6.97;6.00;;;12.30;99.90;;;;;;4981517;28;20462;-60
2023/08/05 04:57:05;;;;;;;6.90;6.20;;;12.40;99.90;;;;;;4981924;28;20934;-60
2023/08/05 04:59:32;;;;;;;6.60;6.00;;;12.40;99.90;;;;;;4980922;28;20489;-60
2023/08/05 05:01:59;;;;;;;10.93;6.90;;;12.50;99.90;;;;;;4981044;28;20498;-60
2023/08/05 05:04:26;;;;;;;7.07;6.37;;;12.50;99.90;;;;;;4981689;28;20437;-60
2023/08/05 05:06:54;;;;;;;8.80;7.43;;;12.50;99.90;;;;;;4980612;28;20816;-60
2023/08/05 05:09:22;;;;;;;7.27;6.57;;;12.50;99.90;;;;;;4981447;28;20462;-60
2023/08/05 05:11:50;;;;;;;25.40;7.00;;;12.60;99.90;;;;;;4981324;28;20462;-60
2023/08/05 05:14:17;;;;;;;20.73;6.90;;;12.50;99.90;;;;;;4980818;28;20929;-60
2023/08/05 05:16:44;;;;;;;9.83;6.87;;;12.50;99.90;;;;;;4980778;28;20451;-60
2023/08/05 05:19:11;;;;;;;8.53;5.90;;;12.70;99.90;;;;;;4980693;28;20437;-60
2023/08/05 05:21:38;;;;;;;27.30;7.13;;;12.70;99.90;;;;;;4980160;28;20895;-59
2023/08/05 05:24:06;;;;;;;12.67;7.43;;;12.70;99.90;;;;;;4979607;28;20468;-59
2023/08/05 05:26:34;;;;;;;39.20;8.33;;;12.70;99.90;;;;;;4978646;28;20517;-60
2023/08/05 05:29:01;;;;;;;59.37;8.97;;;12.80;99.90;;;;;;4979788;28;20484;-60
2023/08/05 05:31:29;;;;;;;8.20;6.00;;;12.90;99.90;;;;;;4980856;28;20762;-60
2023/08/05 05:33:56;;;;;;;19.00;6.93;;;13.00;99.90;;;;;;4980082;28;20527;-60
2023/08/05 05:36:24;;;;;;;8.70;6.90;;;13.10;99.90;;;;;;4978861;28;20771;-60
2023/08/05 05:38:51;;;;;;;7.50;6.80;;;13.10;99.90;;;;;;4980250;28;20895;-61
2023/08/05 05:41:18;;;;;;;9.13;7.10;;;13.10;99.90;;;;;;4980179;28;20461;-61
2023/08/05 05:43:47;;;;;;;7.87;7.07;;;13.30;99.90;;;;;;4979645;28;20501;-61
2023/08/05 05:46:15;;;;;;;9.60;7.07;;;13.50;99.90;;;;;;4979993;28;20588;-64
2023/08/05 05:48:42;;;;;;;8.03;7.23;;;13.70;99.90;;;;;;4979866;28;20978;-64
2023/08/05 05:51:10;;;;;;;9.13;7.50;;;13.80;99.90;;;;;;4968810;28;20617;-64
2023/08/05 05:53:37;;;;;;;9.47;7.37;;;13.90;99.90;;;;;;4960070;29;20469;-65
2023/08/05 05:56:05;;;;;;;8.47;7.60;;;14.00;99.90;;;;;;4960131;28;20986;-64
2023/08/05 05:58:34;;;;;;;12.90;7.77;;;14.00;99.90;;;;;;4959908;29;20514;-65
2023/08/05 06:01:03;;;;;;;8.53;7.70;;;14.10;99.90;;;;;;4960508;29;20462;-65
2023/08/05 06:03:33;;;;;;;7.83;7.03;;;14.20;99.90;;;;;;4960358;28;20554;-65
2023/08/05 06:06:01;;;;;;;7.90;6.97;;;14.10;99.90;;;;;;4960337;28;20481;-65
2023/08/05 06:08:28;;;;;;;7.77;7.07;;;13.90;99.90;;;;;;4960541;28;20896;-65
2023/08/05 06:10:55;;;;;;;7.80;7.10;;;14.00;99.90;;;;;;4960227;29;20826;-65
2023/08/05 06:13:23;;;;;;;8.30;7.37;;;14.20;99.90;;;;;;4960503;29;20462;-65
2023/08/05 06:15:50;;;;;;;8.37;6.77;;;14.20;99.90;;;;;;4959994;28;20491;-66
2023/08/05 06:18:18;;;;;;;7.83;7.13;;;14.50;99.90;;;;;;4960198;29;20429;-66
2023/08/05 06:20:48;;;;;;;7.87;7.03;;;14.80;99.90;;;;;;4960260;28;20462;-66
2023/08/05 06:23:15;;;;;;;8.73;7.30;;;15.10;99.90;;;;;;4959603;28;20462;-66
2023/08/05 06:25:42;;;;;;;9.33;7.47;;;15.40;99.90;;;;;;4959734;29;20557;-67
2023/08/05 06:28:10;;;;;;;8.03;7.23;;;15.60;99.90;;;;;;4959971;29;20502;-67
2023/08/05 06:30:42;;;;;;;7.37;6.67;;;15.60;99.90;;;;;;4960263;29;20448;-67
2023/08/05 06:33:09;;;;;;;8.90;7.40;;;15.60;99.90;;;;;;4959981;29;20546;-67
2023/08/05 06:35:38;;;;;;;9.70;8.70;;;15.60;99.90;;;;;;4960012;29;20462;-68
2023/08/05 06:38:05;;;;;;;15.67;14.03;;;15.60;99.90;;;;;;4959014;28;20465;-68
2023/08/05 06:40:32;;;;;;;15.40;13.80;;;15.60;99.90;;;;;;4959683;29;20954;-68
2023/08/05 06:42:59;;;;;;;17.00;15.30;;;15.60;99.90;;;;;;4959734;29;20509;-68
2023/08/05 06:45:27;;;;;;;19.00;16.30;;;15.60;99.90;;;;;;4959763;28;20440;-68
2023/08/05 06:47:55;;;;;;;18.70;16.13;;;15.70;99.90;;;;;;4959153;28;20543;-68
2023/08/05 06:50:22;;;;;;;20.37;16.03;;;15.80;99.90;;;;;;4963724;28;20458;-68
2023/08/05 06:52:50;;;;;;;18.90;16.30;;;16.00;99.90;;;;;;4978897;28;20576;-69
2023/08/05 06:55:19;;;;;;;18.93;16.93;;;16.20;99.90;;;;;;4979095;28;20741;-69
2023/08/05 06:57:48;;;;;;;17.30;14.67;;;16.30;99.90;;;;;;4978833;28;20527;-69
2023/08/05 07:00:16;;;;;;;21.43;18.87;;;16.30;99.90;;;;;;4978339;28;20512;-68
2023/08/05 07:02:44;;;;;;;22.17;16.90;;;16.30;99.90;;;;;;4978797;28;20472;-68
2023/08/05 07:05:11;;;;;;;23.20;18.80;;;16.30;99.90;;;;;;4978907;28;20462;-67
2023/08/05 07:07:38;;;;;;;23.20;19.00;;;16.40;99.90;;;;;;4978399;28;20849;-68
2023/08/05 07:10:11;;;;;;;26.80;19.67;;;16.50;99.90;;;;;;4978438;28;20891;-68
2023/08/05 07:12:38;;;;;;;23.27;19.87;;;16.50;99.90;;;;;;4978449;28;20468;-68
2023/08/05 07:15:06;;;;;;;23.07;19.73;;;16.40;99.90;;;;;;4978760;28;20468;-67
2023/08/05 07:17:35;;;;;;;26.50;20.60;;;16.50;99.90;;;;;;4978444;28;20516;-67
2023/08/05 07:20:04;;;;;;;29.30;22.50;;;16.50;99.90;;;;;;4978616;28;20744;-68
2023/08/05 07:22:31;;;;;;;27.30;20.80;;;16.50;99.90;;;;;;4978686;28;20819;-67
2023/08/05 07:24:59;;;;;;;24.80;20.50;;;16.50;99.90;;;;;;4978028;28;20471;-67
2023/08/05 07:27:28;;;;;;;25.40;20.73;;;16.60;99.90;;;;;;4978454;28;20589;-67
2023/08/05 07:29:56;;;;;;;25.90;21.80;;;16.70;99.90;;;;;;4977640;28;20461;-67
2023/08/05 07:32:23;;;;;;;26.40;21.80;;;16.60;99.90;;;;;;4977736;28;20489;-67
2023/08/05 07:34:55;;;;;;;23.70;19.67;;;16.70;99.90;;;;;;4978386;28;20838;-67
2023/08/05 07:37:24;;;;;;;22.07;18.57;;;16.80;99.90;;;;;;4978442;28;20497;-66
2023/08/05 07:39:52;;;;;;;21.13;18.23;;;16.90;99.90;;;;;;4978266;28;20887;-66
2023/08/05 07:42:22;;;;;;;22.30;18.00;;;16.80;99.90;;;;;;4978149;28;20473;-66
2023/08/05 07:44:52;;;;;;;24.00;18.97;;;16.80;99.90;;;;;;4978567;28;20866;-66
2023/08/05 07:47:20;;;;;;;19.23;17.20;;;16.90;99.90;;;;;;4978161;28;20525;-66
2023/08/05 07:49:48;;;;;;;18.23;15.73;;;17.00;99.90;;;;;;4978459;28;20565;-66
2023/08/05 07:52:15;;;;;;;20.57;17.03;;;16.90;99.90;;;;;;4962379;29;20499;-66
2023/08/05 07:54:42;;;;;;;22.60;17.97;;;17.00;99.90;;;;;;4962349;29;20847;-66
2023/08/05 07:57:09;;;;;;;19.43;16.30;;;17.00;99.90;;;;;;4963005;29;20459;-66
2023/08/05 07:59:37;;;;;;;17.83;16.00;;;17.20;99.90;;;;;;4962383;29;20766;-66
2023/08/05 08:02:10;;;;;;;18.07;15.17;;;17.40;99.90;;;;;;4962247;28;20557;-66
2023/08/05 08:04:37;;;;;;;17.57;15.20;;;17.70;99.90;;;;;;4960947;28;20473;-65
2023/08/05 08:07:04;;;;;;;14.83;13.27;;;17.90;99.90;;;;;;4967051;28;20530;-65
2023/08/05 08:09:32;;;;;;;15.37;13.80;;;18.10;99.90;;;;;;4960170;29;20493;-65
2023/08/05 08:11:59;;;;;;;15.00;13.50;;;18.30;1.00;;;;;;4961155;29;20680;-65
2023/08/05 08:14:26;;;;;;;19.90;15.57;;;18.50;1.00;;;;;;4961708;29;20512;-65
2023/08/05 08:16:57;;;;;;;17.40;15.80;;;18.40;99.90;;;;;;4960986;28;20942;-66
2023/08/05 08:19:26;;;;;;;17.23;15.63;;;18.30;99.90;;;;;;4961949;28;20556;-66
2023/08/05 08:21:53;;;;;;;16.57;14.83;;;18.60;1.00;;;;;;4962156;29;20753;-66
2023/08/05 08:24:20;;;;;;;17.03;15.43;;;18.80;1.00;;;;;;4961983;29;20497;-65
2023/08/05 08:26:47;;;;;;;17.27;15.57;;;19.10;1.00;;;;;;4961224;29;20562;-65
2023/08/05 08:29:15;;;;;;;14.97;13.57;;;19.00;1.00;;;;;;4961258;29;20744;-64
2023/08/05 08:31:42;;;;;;;17.30;15.30;;;18.90;1.00;;;;;;4960795;29;20473;-65
2023/08/05 08:34:11;;;;;;;15.40;13.90;;;18.90;1.00;;;;;;4960172;29;20462;-65
2023/08/05 08:36:39;;;;;;;14.40;12.90;;;18.70;1.00;;;;;;4961104;28;20480;-65
2023/08/05 08:39:06;;;;;;;15.37;13.87;;;18.70;1.00;;;;;;4961044;29;20461;-64
2023/08/05 08:41:39;;;;;;;15.17;13.10;;;18.60;1.00;;;;;;4961639;29;20895;-66
2023/08/05 08:44:08;;;;;;;16.67;13.33;;;18.80;1.00;;;;;;4961360;29;20437;-66
2023/08/05 08:46:35;;;;;;;15.77;14.27;;;19.50;1.00;;;;;;4961544;28;20466;-65
2023/08/05 08:49:02;;;;;;;14.50;13.13;;;20.00;1.00;;;;;;4961717;29;20504;-65
2023/08/05 08:51:30;;;;;;;14.50;12.87;;;20.30;1.00;;;;;;4975099;28;20487;-69
2023/08/05 08:54:02;;;;;;;13.40;12.17;;;20.50;1.00;;;;;;4976749;28;20820;-68
2023/08/05 08:56:29;;;;;;;13.03;11.63;;;20.40;1.00;;;;;;4961968;28;20470;-68
2023/08/05 08:58:56;;;;;;;12.90;11.50;;;20.70;1.00;;;;;;4962499;29;20462;-67
2023/08/05 09:01:24;;;;;;;12.40;11.03;;;21.00;1.00;;;;;;4972135;28;20756;-65
2023/08/05 09:03:53;;;;;;;12.13;10.70;;;21.30;1.00;;;;;;4969239;28;20514;-62
2023/08/05 09:06:23;;;;;;;12.83;11.53;;;21.60;1.00;;;;;;4978299;28;20482;-63
2023/08/05 09:08:50;;;;;;;13.20;11.80;;;21.80;1.00;;;;;;4980331;28;20751;-64
2023/08/05 09:11:19;;;;;;;14.03;12.53;;;22.10;1.00;;;;;;4964539;28;20478;-65
2023/08/05 09:13:46;;;;;;;14.30;11.90;;;22.40;1.00;;;;;;4959821;29;20739;-64
2023/08/05 09:16:14;;;;;;;12.63;11.43;;;22.50;1.00;;;;;;4961948;29;20491;-65
2023/08/05 09:18:45;;;;;;;12.17;10.97;;;22.70;1.00;;;;;;4962032;28;20471;-64
2023/08/05 09:21:12;;;;;;;12.30;11.10;;;22.90;1.00;;;;;;4962616;28;20758;-63
2023/08/05 09:23:47;;;;;;;13.07;11.70;;;23.10;1.00;;;;;;4963497;29;20513;-63
2023/08/05 09:26:15;;;;;;;12.60;11.50;;;23.40;1.00;;;;;;4964204;29;20829;-64
2023/08/05 09:28:43;;;;;;;14.10;12.73;;;23.20;99.90;;;;;;4965695;29;20498;-65
2023/08/05 09:31:15;;;;;;;13.10;11.80;;;22.50;99.90;;;;;;4965873;29;20462;-63
2023/08/05 09:33:43;;;;;;;13.60;12.30;;;22.40;99.90;;;;;;4967997;29;20892;-63
2023/08/05 09:36:11;;;;;;;16.00;12.60;;;22.10;99.90;;;;;;4966624;29;20466;-65
2023/08/05 09:38:40;;;;;;;15.60;13.90;;;22.00;99.90;;;;;;4964222;29;20907;-64
2023/08/05 09:41:07;;;;;;;14.43;12.93;;;22.10;1.00;;;;;;4966408;29;20771;-64
2023/08/05 09:43:40;;;;;;;13.23;11.93;;;22.00;99.90;;;;;;4964133;28;20892;-64
2023/08/05 09:46:12;;;;;;;14.63;13.27;;;22.40;99.90;;;;;;4965115;29;20473;-64
2023/08/05 09:48:43;;;;;;;14.13;12.73;;;22.10;99.90;;;;;;4964970;28;20776;-63
2023/08/05 09:51:16;;;;;;;14.03;12.87;;;22.60;99.90;;;;;;4966338;28;20494;-65
2023/08/05 09:53:46;;;;;;;12.67;11.47;;;22.80;99.90;;;;;;4964379;28;20518;-62
2023/08/05 09:56:18;;;;;;;13.70;12.50;;;23.10;99.90;;;;;;4985974;28;20469;-64
2023/08/05 09:58:47;;;;;;;13.37;12.00;;;23.30;99.90;;;;;;4974280;28;20909;-63
2023/08/05 10:01:18;;;;;;;13.50;12.23;;;23.40;99.90;;;;;;4987990;28;20465;-64
2023/08/05 10:03:47;;;;;;;14.97;13.57;;;23.50;99.90;;;;;;4986314;28;20479;-64
2023/08/05 10:06:15;;;;;;;13.07;11.83;;;23.70;99.90;;;;;;4986995;28;20476;-63
2023/08/05 10:08:43;;;;;;;12.93;11.83;;;23.90;99.90;;;;;;4988271;28;20580;-64
2023/08/05 10:11:10;;;;;;;11.77;10.77;;;24.30;99.90;;;;;;4986443;28;20463;-61
2023/08/05 10:13:40;;;;;;;12.13;11.13;;;24.20;99.90;;;;;;4984345;28;20584;-63
2023/08/05 10:16:09;;;;;;;13.50;12.20;;;24.20;99.90;;;;;;4972141;28;20474;-64
2023/08/05 10:18:39;;;;;;;13.43;12.20;;;23.90;99.90;;;;;;4967600;29;20482;-64
2023/08/05 10:21:09;;;;;;;12.33;11.17;;;23.50;99.90;;;;;;4965795;28;20478;-63
2023/08/05 10:23:37;;;;;;;11.73;10.73;;;23.60;99.90;;;;;;4967484;28;20467;-66
2023/08/05 10:26:06;;;;;;;12.00;10.90;;;24.10;99.90;;;;;;4977984;28;20482;-64
2023/08/05 10:28:40;;;;;;;11.00;10.10;;;23.70;99.90;;;;;;4974208;28;20505;-64
2023/08/05 10:31:23;;;;;;;12.33;11.03;;;23.80;99.90;;;;;;4965280;28;20448;-63
2023/08/05 10:34:11;;;;;;;10.40;9.40;;;24.00;99.90;;;;;;4972796;28;20636;-63
2023/08/05 10:36:45;;;;;;;11.70;10.50;;;24.50;99.90;;;;;;4959410;28;20458;-64
2023/08/05 10:39:41;;;;;;;11.13;10.13;;;23.90;99.90;;;;;;4960968;28;20537;-63
2023/08/05 10:42:34;;;;;;;10.93;10.03;;;23.80;99.90;;;;;;4963002;28;20459;-64
2023/08/05 10:45:04;;;;;;;9.47;8.57;;;24.00;99.90;;;;;;4961754;28;20487;-64
2023/08/05 10:47:31;;;;;;;9.00;8.30;;;24.20;99.90;;;;;;4959649;28;20839;-64
2023/08/05 10:50:01;;;;;;;9.27;8.37;;;24.30;99.90;;;;;;4959752;29;20465;-65
2023/08/05 10:52:29;;;;;;;9.20;8.40;;;24.70;99.90;;;;;;4960765;28;20487;-63
2023/08/05 10:54:58;;;;;;;9.57;8.70;;;25.00;99.90;;;;;;4967121;28;20791;-63
2023/08/05 10:57:47;;;;;;;8.63;7.83;;;24.50;99.90;;;;;;4960545;28;20498;-65
2023/08/05 11:00:22;;;;;;;8.60;7.90;;;23.90;99.90;;;;;;4963858;28;20478;-65
2023/08/05 11:03:10;;;;;;;8.83;7.90;;;23.60;99.90;;;;;;4959699;28;20510;-65
2023/08/05 11:05:40;;;;;;;8.03;7.30;;;23.30;99.90;;;;;;4958236;29;20470;-65
2023/08/05 11:08:08;;;;;;;9.50;8.60;;;23.30;99.90;;;;;;4965399;28;20563;-66
2023/08/05 11:10:36;;;;;;;10.13;8.50;;;23.30;99.90;;;;;;4978912;28;20753;-66
2023/08/05 11:13:03;;;;;;;8.70;7.90;;;23.30;99.90;;;;;;4969740;28;20479;-65
2023/08/05 11:15:31;;;;;;;9.10;8.30;;;23.60;99.90;;;;;;4964686;28;20568;-65
2023/08/05 11:17:58;;;;;;;10.67;9.77;;;23.60;99.90;;;;;;4965700;28;20485;-64
2023/08/05 11:20:33;;;;;;;9.90;8.90;;;23.30;99.90;;;;;;4975578;28;20514;-66
2023/08/05 11:23:02;;;;;;;9.63;8.43;;;23.20;99.90;;;;;;4978621;28;20569;-66
2023/08/05 11:25:30;;;;;;;10.40;9.47;;;23.10;99.90;;;;;;4977870;28;20461;-66
2023/08/05 11:27:57;;;;;;;9.60;8.70;;;23.00;99.90;;;;;;4979019;28;20540;-66
2023/08/05 11:30:24;;;;;;;9.20;8.40;;;22.80;99.90;;;;;;4967342;28;20473;-64
2023/08/05 11:32:53;;;;;;;10.20;9.20;;;22.50;99.90;;;;;;4973966;28;20470;-66
2023/08/05 11:35:20;;;;;;;9.83;8.70;;;22.20;99.90;;;;;;4960429;28;20586;-65
2023/08/05 11:37:48;;;;;;;9.20;8.37;;;21.90;99.90;;;;;;4958751;28;20785;-66
2023/08/05 11:40:17;;;;;;;10.23;9.13;;;21.80;99.90;;;;;;4958904;29;20550;-66
2023/08/05 11:42:44;;;;;;;10.17;9.27;;;21.70;99.90;;;;;;4959976;28;20465;-66
2023/08/05 11:45:13;;;;;;;8.77;8.07;;;22.00;99.90;;;;;;4960212;29;20842;-65
2023/08/05 11:47:41;;;;;;;8.80;7.90;;;22.10;99.90;;;;;;4958815;29;20463;-66
2023/08/05 11:50:09;;;;;;;9.13;8.33;;;22.20;99.90;;;;;;4959264;28;20494;-66
2023/08/05 11:52:36;;;;;;;9.60;8.60;;;22.30;99.90;;;;;;4959417;29;20497;-64
2023/08/05 11:55:07;;;;;;;9.77;8.83;;;22.50;99.90;;;;;;4960582;29;20840;-63
2023/08/05 11:57:35;;;;;;;8.87;8.07;;;22.40;99.90;;;;;;4964475;28;20922;-66
2023/08/05 12:00:08;;;;;;;8.87;7.90;;;22.20;99.90;;;;;;4974428;28;20547;-67
2023/08/05 12:02:36;;;;;;;8.43;7.73;;;22.20;99.90;;;;;;4975970;28;20466;-65
2023/08/05 12:05:05;;;;;;;9.07;8.27;;;22.10;99.90;;;;;;4976866;28;20462;-67
2023/08/05 12:07:32;;;;;;;9.20;8.40;;;22.00;99.90;;;;;;4976015;28;20465;-64
2023/08/05 12:10:08;;;;;;;8.20;7.40;;;21.70;99.90;;;;;;4976433;28;20497;-64
2023/08/05 12:12:37;;;;;;;9.47;8.50;;;21.40;99.90;;;;;;4975912;28;20469;-66
2023/08/05 12:15:16;;;;;;;9.10;8.30;;;21.20;99.90;;;;;;4977807;28;20453;-63
2023/08/05 12:17:48;;;;;;;9.87;8.87;;;20.90;99.90;;;;;;4977292;28;20755;-65
2023/08/05 12:20:18;;;;;;;9.00;8.23;;;20.30;99.90;;;;;;4975136;28;20457;-65
2023/08/05 12:22:45;;;;;;;9.50;8.50;;;20.10;99.90;;;;;;4974222;28;20462;-65
2023/08/05 12:25:13;;;;;;;9.30;8.23;;;19.90;99.90;;;;;;4975242;28;20467;-61
2023/08/05 12:27:43;;;;;;;10.30;9.40;;;19.80;1.00;;;;;;4975873;28;20464;-66
2023/08/05 12:30:11;;;;;;;10.13;8.70;;;19.60;1.00;;;;;;4976442;28;20497;-64
2023/08/05 12:32:39;;;;;;;10.93;9.87;;;19.70;1.00;;;;;;4976698;28;20453;-65
2023/08/05 12:35:08;;;;;;;10.20;9.20;;;19.80;1.00;;;;;;4977316;28;20462;-65
2023/08/05 12:37:36;;;;;;;10.63;9.53;;;19.90;1.00;;;;;;4981054;28;20467;-64
2023/08/05 12:40:03;;;;;;;9.63;8.63;;;20.00;1.00;;;;;;4981338;28;20511;-64
2023/08/05 12:42:31;;;;;;;10.37;9.30;;;20.00;1.00;;;;;;4981265;28;20840;-64
2023/08/05 12:45:03;;;;;;;9.87;8.80;;;20.10;1.00;;;;;;4983012;28;20472;-64
2023/08/05 12:47:30;;;;;;;9.80;8.80;;;20.30;1.00;;;;;;4981034;28;20465;-64